Time;durP1;ratioP1;P1;durP2;ratioP2;P2;SDS_P1;SDS_P2;PMS_P1;PMS_P2;Temp;Humidity;BMP_temperature;BMP_pressure;BME280_temperature;BME280_humidity;BME280_pressure;Samples;Min_cycle;Max_cycle;Signal;HPM_P1;HPM_P2
2024/01/22 00:00:39;;;;;;;;;;;;;;;5.89;59.15;102812.48;106543;1253;67386;-86
2024/01/22 00:03:13;;;;;;;;;;;;;;;5.86;59.16;102816.20;106622;1253;71451;-77
2024/01/22 00:05:41;;;;;;;;;;;;;;;5.83;59.31;102815.92;106347;1256;61321;-86
2024/01/22 00:08:09;;;;;;;;;;;;;;;5.80;59.33;102813.92;106480;1253;61180;-86
2024/01/22 00:10:43;;;;;;;;;;;;;;;5.74;59.17;102815.92;106655;1257;74398;-86
2024/01/22 00:13:18;;;;;;;;;;;;;;;5.76;59.31;102818.02;106704;1253;67509;-86
2024/01/22 00:15:52;;;;;;;;;;;;;;;5.87;59.14;102813.12;106509;1254;72325;-87
2024/01/22 00:18:26;;;;;;;;;;;;;;;5.90;58.69;102817.17;106310;1256;262876;-78
2024/01/22 00:21:07;;;;;;;;;;;;;;;5.89;59.02;102818.61;106490;1254;61358;-86
2024/01/22 00:23:34;;;;;;;;;;;;;;;5.87;58.90;102823.54;106500;1258;74670;-86
2024/01/22 00:26:12;;;;;;;;;;;;;;;5.92;58.75;102820.79;106633;1253;68888;-86
2024/01/22 00:28:51;;;;;;;;;;;;;;;5.85;58.60;102826.02;106486;1257;71115;-86
2024/01/22 00:31:25;;;;;;;;;;;;;;;5.81;58.85;102833.71;106825;1259;61129;-79
2024/01/22 00:33:53;;;;;;;;;;;;;;;5.76;59.14;102831.58;106585;1253;61215;-78
2024/01/22 00:36:27;;;;;;;;;;;;;;;5.72;59.28;102832.27;106596;1253;73612;-78
2024/01/22 00:39:07;;;;;;;;;;;;;;;5.69;59.51;102836.28;106332;1253;68449;-86
2024/01/22 00:41:41;;;;;;;;;;;;;;;5.74;59.02;102834.35;106882;1253;71377;-85
2024/01/22 00:44:15;;;;;;;;;;;;;;;5.74;59.07;102833.47;106433;1254;61092;-86
2024/01/22 00:46:48;;;;;;;;;;;;;;;5.74;58.82;102837.17;106583;1258;61468;-86
2024/01/22 00:49:28;;;;;;;;;;;;;;;5.71;58.74;102837.65;106394;1253;73794;-77
2024/01/22 00:52:02;;;;;;;;;;;;;;;5.69;58.80;102836.83;106526;1256;67322;-86
2024/01/22 00:54:30;;;;;;;;;;;;;;;5.65;59.10;102838.56;106435;1258;72654;-78
2024/01/22 00:57:03;;;;;;;;;;;;;;;5.64;59.27;102841.42;106481;1257;61241;-86
2024/01/22 00:59:43;;;;;;;;;;;;;;;5.58;59.46;102838.73;106659;1253;61448;-77
2024/01/22 01:02:17;;;;;;;;;;;;;;;5.51;60.08;102838.59;106464;1253;73445;-86
2024/01/22 01:04:49;;;;;;;;;;;;;;;5.55;59.93;102836.55;106448;1258;68409;-86
2024/01/22 01:07:23;;;;;;;;;;;;;;;5.62;59.71;102831.75;106603;1253;73189;-78
2024/01/22 01:10:03;;;;;;;;;;;;;;;5.71;59.30;102828.97;106507;1253;60887;-78
2024/01/22 01:12:43;;;;;;;;;;;;;;;5.72;59.30;102831.39;106511;1254;61411;-78
2024/01/22 01:15:10;;;;;;;;;;;;;;;5.69;59.13;102829.94;106629;1253;74608;-86
2024/01/22 01:17:50;;;;;;;;;;;;;;;5.64;59.03;102827.48;106559;1251;67448;-86
2024/01/22 01:20:24;;;;;;;;;;;;;;;5.62;59.16;102825.42;106532;1258;71227;-77
2024/01/22 01:23:04;;;;;;;;;;;;;;;5.70;59.05;102828.77;106522;1253;61294;-79
2024/01/22 01:25:33;;;;;;;;;;;;;;;5.59;59.52;102827.20;106827;1258;61169;-78
2024/01/22 01:28:07;;;;;;;;;;;;;;;5.41;60.03;102819.42;106507;1253;73516;-78
2024/01/22 01:30:41;;;;;;;;;;;;;;;5.36;60.65;102810.00;106615;1259;69808;-78
2024/01/22 01:33:15;;;;;;;;;;;;;;;5.34;60.81;102812.66;106485;1253;71169;-78
2024/01/22 01:35:49;;;;;;;;;;;;;;;5.30;60.93;102816.84;106602;1256;61288;-78
2024/01/22 01:38:22;;;;;;;;;;;;;;;5.27;61.43;102820.14;106491;1253;59429;-78
2024/01/22 01:40:56;;;;;;;;;;;;;;;5.29;61.36;102815.17;106536;1253;73397;-78
2024/01/22 01:43:30;;;;;;;;;;;;;;;5.35;61.26;102818.96;106748;1258;68384;-86
2024/01/22 01:46:04;;;;;;;;;;;;;;;5.35;61.46;102821.83;106479;1255;71580;-86
2024/01/22 01:48:31;;;;;;;;;;;;;;;5.35;61.50;102825.55;106861;1254;61333;-86
2024/01/22 01:51:00;;;;;;;;;;;;;;;5.29;61.76;102829.21;106597;1254;61253;-78
2024/01/22 01:53:34;;;;;;;;;;;;;;;5.48;61.53;102827.40;106787;1256;74732;-79
2024/01/22 01:56:08;;;;;;;;;;;;;;;5.70;60.25;102829.98;106728;1254;68359;-78
2024/01/22 01:58:48;;;;;;;;;;;;;;;5.77;59.85;102830.82;106397;1256;72675;-78
2024/01/22 02:01:21;;;;;;;;;;;;;;;5.65;59.97;102827.61;106527;1259;62183;-78
2024/01/22 02:03:55;;;;;;;;;;;;;;;5.58;60.50;102832.34;106570;1259;61291;-86
2024/01/22 02:06:29;;;;;;;;;;;;;;;4.65;64.44;102838.52;106534;1254;73898;-85
2024/01/22 02:09:03;;;;;;;;;;;;;;;4.17;69.41;102838.76;106529;1254;69111;-86
2024/01/22 02:11:37;;;;;;;;;;;;;;;3.98;72.08;102839.61;106499;1259;71219;-78
2024/01/22 02:14:10;;;;;;;;;;;;;;;3.97;72.91;102838.52;106380;1257;61354;-79
2024/01/22 02:16:38;;;;;;;;;;;;;;;3.96;73.04;102838.05;106548;1253;61133;-78
2024/01/22 02:19:12;;;;;;;;;;;;;;;3.90;73.55;102835.75;106472;1253;74661;-86
2024/01/22 02:21:46;;;;;;;;;;;;;;;3.93;73.58;102837.73;106520;1253;68407;-78
2024/01/22 02:24:20;;;;;;;;;;;;;;;3.96;73.39;102842.05;107126;1254;72731;-86
2024/01/22 02:26:53;;;;;;;;;;;;;;;3.97;72.98;102845.55;106962;1253;61202;-85
2024/01/22 02:29:27;;;;;;;;;;;;;;;4.01;72.53;102847.65;106536;1253;61099;-86
2024/01/22 02:32:00;;;;;;;;;;;;;;;4.03;72.34;102850.59;106634;1253;74744;-86
2024/01/22 02:34:34;;;;;;;;;;;;;;;4.06;72.56;102853.89;106520;1253;68545;-86
2024/01/22 02:37:08;;;;;;;;;;;;;;;4.12;72.36;102861.65;106807;1257;72722;-78
2024/01/22 02:39:36;;;;;;;;;;;;;;;4.10;72.51;102856.79;106543;1253;61229;-78
2024/01/22 02:42:16;;;;;;;;;;;;;;;4.07;72.94;102854.70;106821;1253;61224;-78
2024/01/22 02:44:43;;;;;;;;;;;;;;;4.13;72.59;102857.96;106505;1257;74585;-78
2024/01/22 02:47:11;;;;;;;;;;;;;;;4.08;72.63;102861.20;106587;1257;67595;-78
2024/01/22 02:49:45;;;;;;;;;;;;;;;4.13;71.95;102866.28;106485;1254;71355;-86
2024/01/22 02:52:19;;;;;;;;;;;;;;;4.09;72.07;102872.80;106597;1253;61318;-86
2024/01/22 02:54:53;;;;;;;;;;;;;;;4.00;72.83;102876.80;106527;1257;61313;-78
2024/01/22 02:57:26;;;;;;;;;;;;;;;4.04;72.75;102878.77;106555;1253;73528;-83
2024/01/22 03:00:00;;;;;;;;;;;;;;;3.99;72.89;102887.66;106679;1257;67140;-86
2024/01/22 03:02:34;;;;;;;;;;;;;;;4.02;72.70;102893.65;106590;1253;72656;-78
2024/01/22 03:05:08;;;;;;;;;;;;;;;4.07;72.44;102895.46;106546;1259;61179;-86
2024/01/22 03:07:35;;;;;;;;;;;;;;;4.01;73.00;102891.30;106537;1258;62180;-78
2024/01/22 03:10:10;;;;;;;;;;;;;;;4.12;72.49;102890.32;106531;1253;73310;-78
2024/01/22 03:12:45;;;;;;;;;;;;;;;4.20;71.76;102889.83;106492;1259;67157;-86
2024/01/22 03:15:19;;;;;;;;;;;;;;;4.33;71.33;102889.74;106554;1259;71398;-78
2024/01/22 03:17:53;;;;;;;;;;;;;;;4.42;70.65;102885.64;106734;1256;61419;-86
2024/01/22 03:20:27;;;;;;;;;;;;;;;4.30;71.65;102886.48;106838;1253;61319;-78
2024/01/22 03:23:01;;;;;;;;;;;;;;;4.34;71.42;102888.02;106585;1254;74643;-78
2024/01/22 03:25:34;;;;;;;;;;;;;;;4.25;72.41;102890.81;106552;1254;68584;-78
2024/01/22 03:28:08;;;;;;;;;;;;;;;4.29;72.09;102890.65;106663;1257;72752;-86
2024/01/22 03:30:42;;;;;;;;;;;;;;;4.27;72.23;102896.20;106874;1253;61125;-86
2024/01/22 03:33:16;;;;;;;;;;;;;;;4.26;72.28;102894.99;106603;1259;61322;-78
2024/01/22 03:35:45;;;;;;;;;;;;;;;4.30;71.76;102895.86;106597;1258;74775;-86
2024/01/22 03:38:19;;;;;;;;;;;;;;;4.29;71.85;102894.70;106645;1256;68386;-86
2024/01/22 03:40:52;;;;;;;;;;;;;;;4.22;72.40;102898.61;106652;1257;71035;-78
2024/01/22 03:43:26;;;;;;;;;;;;;;;4.31;71.81;102900.75;106573;1255;61346;-78
2024/01/22 03:46:00;;;;;;;;;;;;;;;4.29;71.98;102903.00;106505;1259;61167;-78
2024/01/22 03:48:33;;;;;;;;;;;;;;;4.25;72.15;102907.41;106585;1259;74629;-86
2024/01/22 03:51:07;;;;;;;;;;;;;;;4.32;71.64;102906.63;106397;1262;68642;-86
2024/01/22 03:53:41;;;;;;;;;;;;;;;4.29;71.37;102907.10;107193;1257;71775;-85
2024/01/22 03:56:15;;;;;;;;;;;;;;;4.26;71.49;102903.99;106616;1257;61181;-77
2024/01/22 03:58:42;;;;;;;;;;;;;;;4.28;71.47;102900.43;106388;1257;61227;-77
2024/01/22 04:01:25;;;;;;;;;;;;;;;4.32;71.55;102901.56;106531;1257;74681;-84
2024/01/22 04:03:53;;;;;;;;;;;;;;;4.40;71.01;102905.88;106809;1257;68420;-85
2024/01/22 04:06:26;;;;;;;;;;;;;;;4.29;71.55;102903.70;106592;1254;72650;-85
2024/01/22 04:09:00;;;;;;;;;;;;;;;4.21;71.64;102900.70;106414;1257;61333;-78
2024/01/22 04:11:34;;;;;;;;;;;;;;;4.18;71.89;102897.23;106586;1256;61139;-78
2024/01/22 04:14:08;;;;;;;;;;;;;;;4.23;71.68;102896.71;106391;1258;74664;-77
2024/01/22 04:16:43;;;;;;;;;;;;;;;4.19;71.71;102899.05;106617;1254;68725;-77
2024/01/22 04:19:17;;;;;;;;;;;;;;;4.30;70.91;102908.06;106532;1257;71786;-78
2024/01/22 04:21:51;;;;;;;;;;;;;;;4.33;70.63;102909.54;106556;1254;61104;-86
2024/01/22 04:24:25;;;;;;;;;;;;;;;4.30;70.66;102903.40;106731;1257;60344;-86
2024/01/22 04:26:58;;;;;;;;;;;;;;;4.30;70.96;102897.11;106387;1254;74709;-85
2024/01/22 04:29:32;;;;;;;;;;;;;;;4.37;70.48;102897.77;106468;1259;68447;-86
2024/01/22 04:32:00;;;;;;;;;;;;;;;4.35;70.57;102896.33;106428;1257;74391;-85
2024/01/22 04:34:35;;;;;;;;;;;;;;;4.44;69.69;102897.79;106664;1257;61199;-78
2024/01/22 04:37:10;;;;;;;;;;;;;;;4.49;69.11;102893.50;106576;1253;61229;-86
2024/01/22 04:39:43;;;;;;;;;;;;;;;4.49;68.74;102895.48;106570;1254;73383;-86
2024/01/22 04:42:20;;;;;;;;;;;;;;;4.50;68.65;102894.98;106468;1260;68941;-79
2024/01/22 04:44:55;;;;;;;;;;;;;;;4.52;68.14;102893.33;106451;1255;72895;-78
2024/01/22 04:47:29;;;;;;;;;;;;;;;4.48;68.43;102895.95;106606;1253;61263;-78
2024/01/22 04:50:04;;;;;;;;;;;;;;;4.45;68.62;102901.01;106587;1254;61356;-86
2024/01/22 04:52:37;;;;;;;;;;;;;;;4.34;69.36;102896.65;106569;1255;73359;-85
2024/01/22 04:55:11;;;;;;;;;;;;;;;4.38;69.35;102900.39;106176;1259;67502;-79
2024/01/22 04:57:53;;;;;;;;;;;;;;;4.35;69.16;102903.57;106624;1252;72759;-87
2024/01/22 05:00:27;;;;;;;;;;;;;;;4.34;69.19;102899.69;106333;1255;61203;-86
2024/01/22 05:03:04;;;;;;;;;;;;;;;4.47;68.64;102896.73;106552;1257;61076;-79
2024/01/22 05:05:38;;;;;;;;;;;;;;;4.94;66.37;102898.81;106436;1254;73740;-87
2024/01/22 05:08:13;;;;;;;;;;;;;;;5.16;64.50;102898.91;106700;1254;68397;-78
2024/01/22 05:10:41;;;;;;;;;;;;;;;5.27;63.55;102897.28;106643;1257;74621;-79
2024/01/22 05:13:15;;;;;;;;;;;;;;;5.07;64.30;102904.27;106618;1254;61267;-79
2024/01/22 05:15:48;;;;;;;;;;;;;;;4.78;65.65;102904.47;106419;1259;61246;-79
2024/01/22 05:18:22;;;;;;;;;;;;;;;4.72;66.42;102904.14;106840;1253;74672;-86
2024/01/22 05:20:57;;;;;;;;;;;;;;;4.74;66.60;102911.27;106511;1253;68735;-86
2024/01/22 05:23:31;;;;;;;;;;;;;;;4.74;66.41;102912.39;106502;1258;71426;-79
2024/01/22 05:26:05;;;;;;;;;;;;;;;4.65;66.97;102914.02;106456;1253;62964;-78
2024/01/22 05:28:39;;;;;;;;;;;;;;;4.55;67.84;102915.13;106581;1258;61118;-78
2024/01/22 05:31:13;;;;;;;;;;;;;;;4.68;67.44;102910.54;106430;1253;72781;-77
2024/01/22 05:33:42;;;;;;;;;;;;;;;4.74;67.09;102905.90;106455;1257;67150;-86
2024/01/22 05:36:20;;;;;;;;;;;;;;;4.74;67.20;102904.37;106715;1254;72730;-78
2024/01/22 05:38:48;;;;;;;;;;;;;;;4.74;67.14;102900.91;106533;1257;61421;-78
2024/01/22 05:41:22;;;;;;;;;;;;;;;4.60;68.31;102904.44;106731;1254;61189;-86
2024/01/22 05:43:55;;;;;;;;;;;;;;;4.51;68.79;102908.09;106593;1257;74630;-78
2024/01/22 05:46:30;;;;;;;;;;;;;;;4.41;70.02;102905.58;106693;1254;68688;-78
2024/01/22 05:49:03;;;;;;;;;;;;;;;4.52;69.39;102909.73;106536;1266;70522;-78
2024/01/22 05:51:37;;;;;;;;;;;;;;;4.54;69.29;102908.02;106633;1257;61294;-79
2024/01/22 05:54:10;;;;;;;;;;;;;;;4.55;69.20;102907.97;107024;1254;61125;-85
2024/01/22 05:56:44;;;;;;;;;;;;;;;4.45;70.19;102913.84;106832;1255;75083;-85
2024/01/22 05:59:18;;;;;;;;;;;;;;;4.61;69.54;102913.87;106534;1257;67585;-84
2024/01/22 06:01:54;;;;;;;;;;;;;;;4.59;69.28;102905.83;106461;1257;71662;-85
2024/01/22 06:04:22;;;;;;;;;;;;;;;4.57;69.52;102906.28;106669;1258;61158;-85
2024/01/22 06:06:56;;;;;;;;;;;;;;;4.49;70.17;102907.52;106512;1251;61190;-86
2024/01/22 06:09:34;;;;;;;;;;;;;;;4.45;70.52;102909.64;106531;1253;73389;-78
2024/01/22 06:12:08;;;;;;;;;;;;;;;4.38;71.18;102918.95;106446;1254;68425;-84
2024/01/22 13:13:34;;;;;;;;;;;;;;;7.85;46.87;102678.80;106465;1253;61195;-78
2024/01/22 13:16:07;;;;;;;;;;;;;;;7.87;46.95;102674.25;106492;1252;62120;-78
2024/01/22 13:18:50;;;;;;;;;;;;;;;7.84;46.71;102679.64;106505;1253;75953;-78
2024/01/22 13:21:30;;;;;;;;;;;;;;;7.82;46.95;102682.27;106481;1253;71293;-78
2024/01/22 13:24:07;;;;;;;;;;;;;;;7.81;46.59;102681.69;106668;1254;73631;-79
2024/01/22 13:26:41;;;;;;;;;;;;;;;7.72;46.39;102676.30;106618;1253;61297;-79
2024/01/22 13:29:21;;;;;;;;;;;;;;;7.67;46.70;102673.03;106370;1253;61166;-79
2024/01/22 13:32:01;;;;;;;;;;;;;;;7.62;46.53;102677.20;106727;1253;76798;-79
2024/01/22 13:34:36;;;;;;;;;;;;;;;7.49;46.55;102680.35;106592;1252;69593;-79
2024/01/22 13:37:10;;;;;;;;;;;;;;;7.47;46.47;102673.60;106502;1253;74826;-80
2024/01/22 13:39:50;;;;;;;;;;;;;;;7.49;46.14;102672.14;106511;1254;61336;-79
2024/01/22 13:42:30;;;;;;;;;;;;;;;7.46;46.23;102668.41;106420;1257;61517;-79
2024/01/22 13:44:58;;;;;;;;;;;;;;;7.39;46.49;102669.55;106375;1253;74545;-78
2024/01/22 13:47:38;;;;;;;;;;;;;;;7.40;46.52;102666.67;106433;1253;70568;-78
2024/01/22 13:50:18;;;;;;;;;;;;;;;7.34;46.66;102662.21;106396;1253;74766;-79
2024/01/22 13:52:58;;;;;;;;;;;;;;;7.35;46.54;102660.96;106514;1256;61195;-79
2024/01/22 13:55:31;;;;;;;;;;;;;;;7.44;46.33;102660.20;106525;1253;61166;-79
2024/01/22 13:58:11;;;;;;;;;;;;;;;7.47;46.19;102659.26;106446;1257;75566;-79
2024/01/22 14:00:52;;;;;;;;;;;;;;;7.42;46.21;102663.34;106470;1253;70070;-79
2024/01/22 14:03:32;;;;;;;;;;;;;;;7.26;46.40;102663.65;106661;1253;74703;-79
2024/01/22 14:06:00;;;;;;;;;;;;;;;7.18;46.53;102667.48;106454;1253;61334;-79
2024/01/22 14:08:40;;;;;;;;;;;;;;;7.20;46.41;102665.85;106541;1253;61162;-79
2024/01/22 14:11:20;;;;;;;;;;;;;;;7.10;46.21;102661.83;106586;1253;75555;-79
2024/01/22 14:14:00;;;;;;;;;;;;;;;6.99;46.12;102660.85;106528;1253;71051;-79
2024/01/22 14:16:28;;;;;;;;;;;;;;;7.02;46.49;102655.02;106544;1253;74014;-80
2024/01/22 14:19:08;;;;;;;;;;;;;;;7.07;46.27;102649.14;106889;1253;61612;-79
2024/01/22 14:21:48;;;;;;;;;;;;;;;7.07;46.17;102644.02;106538;1253;61264;-79
2024/01/22 14:24:28;;;;;;;;;;;;;;;7.18;45.80;102637.68;106454;1253;76080;-79
2024/01/22 14:26:57;;;;;;;;;;;;;;;7.34;45.61;102633.48;106651;1252;71110;-79
2024/01/22 14:29:37;;;;;;;;;;;;;;;7.36;45.78;102634.65;106559;1253;74705;-79
2024/01/22 14:32:17;;;;;;;;;;;;;;;7.34;45.76;102629.53;106539;1256;61280;-79
2024/01/22 14:34:57;;;;;;;;;;;;;;;7.16;46.05;102626.89;106353;1253;61350;-79
2024/01/22 14:37:25;;;;;;;;;;;;;;;7.12;46.26;102627.84;106411;1253;76590;-79
2024/01/22 14:40:06;;;;;;;;;;;;;;;7.24;45.83;102630.02;106810;1253;69588;-79
2024/01/22 14:42:46;;;;;;;;;;;;;;;7.33;45.52;102641.55;106531;1257;74833;-79
2024/01/22 14:45:20;;;;;;;;;;;;;;;7.17;45.92;102637.18;106431;1258;62881;-79
2024/01/22 14:47:55;;;;;;;;;;;;;;;7.13;46.14;102641.77;106534;1253;61302;-79
2024/01/22 14:50:36;;;;;;;;;;;;;;;7.10;46.32;102646.47;106554;1253;76588;-79
2024/01/22 14:53:16;;;;;;;;;;;;;;;7.08;46.27;102646.76;106763;1253;71240;-79
2024/01/22 14:55:50;;;;;;;;;;;;;;;7.07;46.37;102647.01;106477;1254;74646;-78
2024/01/22 14:58:24;;;;;;;;;;;;;;;7.06;46.47;102650.72;106439;1253;61259;-79
2024/01/22 15:01:03;;;;;;;;;;;;;;;7.03;46.47;102653.06;106451;1254;61235;-78
2024/01/22 15:03:43;;;;;;;;;;;;;;;6.91;46.84;102645.26;106712;1257;76709;-79
2024/01/22 15:06:17;;;;;;;;;;;;;;;6.89;46.72;102644.78;106586;1253;70382;-79
2024/01/22 15:08:51;;;;;;;;;;;;;;;6.94;46.88;102649.96;106318;1253;74986;-79
2024/01/22 15:11:31;;;;;;;;;;;;;;;6.88;46.76;102651.80;106362;1257;61236;-78
2024/01/22 15:14:15;;;;;;;;;;;;;;;6.71;47.21;102645.52;106372;1253;62040;-78
2024/01/22 15:16:49;;;;;;;;;;;;;;;6.80;47.13;102643.20;106502;1252;75727;-79
2024/01/22 15:19:23;;;;;;;;;;;;;;;6.58;47.44;102644.11;106409;1256;69811;-78
2024/01/22 15:22:03;;;;;;;;;;;;;;;6.49;47.61;102643.17;106467;1253;73745;-79
2024/01/22 15:24:43;;;;;;;;;;;;;;;6.41;47.54;102632.36;106566;1253;61116;-79
2024/01/22 15:27:11;;;;;;;;;;;;;;;6.32;47.92;102626.50;106608;1253;61152;-78
2024/01/22 15:29:51;;;;;;;;;;;;;;;6.20;48.08;102624.16;106372;1253;76029;-79
2024/01/22 15:32:31;;;;;;;;;;;;;;;6.33;47.82;102623.75;106503;1253;69825;-78
2024/01/22 15:35:12;;;;;;;;;;;;;;;6.39;48.05;102628.18;106474;1252;74827;-79
2024/01/22 15:37:41;;;;;;;;;;;;;;;6.45;47.44;102624.64;106650;1252;61317;-79
2024/01/22 15:40:21;;;;;;;;;;;;;;;6.47;47.57;102622.39;106524;1253;61241;-79
2024/01/22 15:43:01;;;;;;;;;;;;;;;6.47;47.63;102626.90;106594;1253;76975;-79
2024/01/22 15:45:41;;;;;;;;;;;;;;;6.50;47.64;102621.23;106604;1252;71344;-78
2024/01/22 15:48:09;;;;;;;;;;;;;;;6.52;47.26;102616.31;106542;1255;74358;-79
2024/01/22 15:50:49;;;;;;;;;;;;;;;6.47;47.54;102612.77;106429;1252;61198;-79
2024/01/22 15:53:29;;;;;;;;;;;;;;;6.47;47.69;102607.47;106715;1257;61177;-79
2024/01/22 15:56:09;;;;;;;;;;;;;;;6.47;47.62;102610.73;106294;1253;75462;-78
2024/01/22 15:58:37;;;;;;;;;;;;;;;6.60;47.54;102613.65;106551;1253;68318;-79
2024/01/22 16:01:21;;;;;;;;;;;;;;;6.57;47.55;102609.25;106683;1253;75027;-79
2024/01/22 16:04:04;;;;;;;;;;;;;;;6.48;47.41;102605.59;106608;1257;61989;-78
2024/01/22 16:06:44;;;;;;;;;;;;;;;6.51;47.50;102600.98;106528;1253;62740;-79
2024/01/22 16:09:36;;;;;;;;;;;;;;;6.70;47.30;102607.03;106500;1257;76598;-79
2024/01/22 16:12:15;;;;;;;;;;;;;;;6.64;47.55;102606.69;106414;1258;70982;-79
2024/01/22 16:14:55;;;;;;;;;;;;;;;6.45;47.99;102601.98;106660;1253;74810;-79
2024/01/22 16:17:35;;;;;;;;;;;;;;;6.51;48.01;102601.19;106740;1253;61742;-79
2024/01/22 16:20:16;;;;;;;;;;;;;;;6.46;47.78;102602.57;106906;1253;61273;-79
2024/01/22 16:22:57;;;;;;;;;;;;;;;6.52;48.11;102604.16;106594;1253;76857;-79
2024/01/22 16:25:36;;;;;;;;;;;;;;;6.52;48.11;102597.88;106625;1253;70989;-79
2024/01/22 16:28:17;;;;;;;;;;;;;;;6.55;48.02;102600.66;107117;1253;73742;-79
2024/01/22 16:30:56;;;;;;;;;;;;;;;6.52;47.82;102592.91;107047;1253;61862;-79
2024/01/22 16:33:36;;;;;;;;;;;;;;;6.54;47.94;102590.88;106786;1253;61724;-79
2024/01/22 16:36:21;;;;;;;;;;;;;;;6.55;47.80;102585.86;106856;1253;75755;-79
2024/01/22 16:39:01;;;;;;;;;;;;;;;6.55;47.89;102583.91;107004;1253;71240;-79
2024/01/22 16:41:41;;;;;;;;;;;;;;;6.48;48.22;102585.79;106717;1253;74017;-79
2024/01/22 16:44:21;;;;;;;;;;;;;;;6.52;48.29;102576.41;106736;1253;61585;-79
2024/01/22 16:47:01;;;;;;;;;;;;;;;6.58;48.08;102577.61;106608;1253;61227;-79
2024/01/22 16:49:41;;;;;;;;;;;;;;;6.63;47.90;102577.13;106813;1255;76575;-78
2024/01/22 16:52:20;;;;;;;;;;;;;;;6.70;47.94;102575.17;106658;1256;69333;-79
2024/01/22 16:55:00;;;;;;;;;;;;;;;6.76;47.52;102566.00;106617;1257;74248;-78
2024/01/22 16:57:40;;;;;;;;;;;;;;;6.79;47.54;102565.67;106757;1253;61225;-79
2024/01/22 17:00:21;;;;;;;;;;;;;;;6.57;48.18;102567.33;106743;1253;61277;-79
2024/01/22 17:03:02;;;;;;;;;;;;;;;6.51;48.19;102564.84;106666;1253;75548;-79
2024/01/22 17:05:42;;;;;;;;;;;;;;;6.57;48.13;102554.80;106780;1257;69412;-79
2024/01/22 17:08:22;;;;;;;;;;;;;;;6.25;48.85;102554.40;106786;1253;74750;-77
2024/01/22 17:11:02;;;;;;;;;;;;;;;6.20;48.90;102554.70;106580;1253;61744;-78
2024/01/22 17:13:45;;;;;;;;;;;;;;;6.24;48.98;102549.46;106682;1253;61290;-77
2024/01/22 17:16:25;;;;;;;;;;;;;;;6.30;49.05;102549.42;107286;1253;76470;-78
2024/01/22 17:19:05;;;;;;;;;;;;;;;6.41;48.62;102548.11;106582;1253;70267;-77
2024/01/22 17:21:45;;;;;;;;;;;;;;;6.44;48.68;102548.71;106588;1253;74653;-78
2024/01/22 17:24:25;;;;;;;;;;;;;;;6.57;48.28;102549.90;106618;1253;61353;-78
2024/01/22 17:27:05;;;;;;;;;;;;;;;6.48;48.51;102551.48;109344;1253;60703;-78
2024/01/22 17:29:47;;;;;;;;;;;;;;;6.59;48.40;102546.61;106688;1253;76755;-78
2024/01/22 17:32:27;;;;;;;;;;;;;;;6.48;48.74;102545.22;106859;1253;69625;-78
2024/01/22 17:35:07;;;;;;;;;;;;;;;6.67;48.33;102538.58;106817;1256;73224;-78
2024/01/22 17:37:47;;;;;;;;;;;;;;;6.24;49.10;102539.83;106622;1257;61961;-78
2024/01/22 17:40:27;;;;;;;;;;;;;;;6.23;49.18;102539.52;106693;1253;61292;-78
2024/01/22 17:43:07;;;;;;;;;;;;;;;6.40;48.67;102533.64;106702;1253;76847;-77
2024/01/22 17:45:46;;;;;;;;;;;;;;;6.50;48.73;102534.16;106974;1257;71083;-78
2024/01/22 17:48:26;;;;;;;;;;;;;;;6.68;48.29;102534.11;106665;1253;73497;-78
2024/01/22 17:51:07;;;;;;;;;;;;;;;6.69;48.28;102526.55;106865;1253;62991;-77
2024/01/22 17:53:46;;;;;;;;;;;;;;;6.78;48.18;102516.64;106762;1253;61761;-79
2024/01/22 17:56:26;;;;;;;;;;;;;;;6.81;47.87;102513.76;106893;1253;77173;-79
2024/01/22 17:59:06;;;;;;;;;;;;;;;6.85;48.13;102515.58;106637;1256;70384;-79
2024/01/22 18:01:46;;;;;;;;;;;;;;;6.94;47.72;102514.22;106686;1253;73588;-79
2024/01/22 18:04:26;;;;;;;;;;;;;;;6.86;47.75;102518.08;106731;1256;61288;-78
2024/01/22 18:07:07;;;;;;;;;;;;;;;6.76;48.11;102516.62;106619;1256;61214;-79
2024/01/22 18:09:47;;;;;;;;;;;;;;;6.69;48.26;102517.11;106815;1254;74952;-79
2024/01/22 18:12:27;;;;;;;;;;;;;;;6.61;48.37;102512.81;106908;1253;68945;-78
2024/01/22 18:15:07;;;;;;;;;;;;;;;6.71;48.27;102513.65;106457;1253;74928;-78
2024/01/22 18:17:47;;;;;;;;;;;;;;;6.89;48.09;102507.44;106660;1253;61295;-78
2024/01/22 18:20:27;;;;;;;;;;;;;;;6.92;47.77;102501.76;106788;1253;61197;-78
2024/01/22 18:23:07;;;;;;;;;;;;;;;6.95;47.79;102497.83;106636;1253;76101;-78
2024/01/22 18:25:46;;;;;;;;;;;;;;;6.93;47.57;102486.09;106740;1257;70746;-78
2024/01/22 18:28:26;;;;;;;;;;;;;;;7.02;47.42;102486.56;106398;1255;74708;-78
2024/01/22 18:31:06;;;;;;;;;;;;;;;7.07;47.27;102487.82;106633;1253;61310;-78
2024/01/22 18:33:46;;;;;;;;;;;;;;;7.22;46.89;102489.19;106754;1253;61326;-78
2024/01/22 18:36:26;;;;;;;;;;;;;;;7.16;47.13;102475.91;106483;1253;75652;-78
2024/01/22 18:39:06;;;;;;;;;;;;;;;7.06;47.12;102472.98;106444;1253;70672;-78
2024/01/22 18:41:48;;;;;;;;;;;;;;;7.09;47.01;102475.23;106761;1257;73109;-79
2024/01/22 18:44:28;;;;;;;;;;;;;;;7.21;47.06;102481.07;106705;1253;61815;-78
2024/01/22 18:47:08;;;;;;;;;;;;;;;7.27;46.75;102480.07;106457;1253;61215;-79
2024/01/22 18:49:48;;;;;;;;;;;;;;;7.23;47.02;102472.75;106537;1253;75584;-79
2024/01/22 18:52:28;;;;;;;;;;;;;;;7.19;47.12;102466.23;106663;1258;69522;-79
2024/01/22 18:55:08;;;;;;;;;;;;;;;7.16;47.14;102465.08;106690;1253;74650;-78
2024/01/22 18:57:48;;;;;;;;;;;;;;;7.14;47.14;102464.91;106466;1252;61386;-78
2024/01/22 19:00:28;;;;;;;;;;;;;;;7.21;46.89;102458.23;106601;1257;61243;-79
2024/01/22 19:03:08;;;;;;;;;;;;;;;7.16;46.70;102458.98;106548;1253;75889;-80
2024/01/22 19:05:48;;;;;;;;;;;;;;;7.17;46.94;102463.04;106894;1253;69761;-79
2024/01/22 19:08:28;;;;;;;;;;;;;;;7.28;46.74;102452.25;106578;1259;72719;-79
2024/01/22 19:11:09;;;;;;;;;;;;;;;7.19;46.63;102442.54;106565;1253;61359;-79
2024/01/22 19:13:49;;;;;;;;;;;;;;;7.06;47.13;102441.45;106614;1255;61608;-79
2024/01/22 19:16:30;;;;;;;;;;;;;;;7.06;47.18;102439.81;106646;1253;75448;-79
2024/01/22 19:19:10;;;;;;;;;;;;;;;6.76;47.53;102435.82;106755;1258;69878;-87
2024/01/22 19:21:50;;;;;;;;;;;;;;;6.45;48.29;102438.61;106674;1257;74046;-86
2024/01/22 19:24:30;;;;;;;;;;;;;;;6.37;48.53;102437.58;106504;1255;61344;-86
2024/01/22 19:27:10;;;;;;;;;;;;;;;6.62;48.21;102431.94;106622;1256;61783;-87
2024/01/22 19:29:50;;;;;;;;;;;;;;;6.36;48.60;102436.25;106726;1253;75650;-86
2024/01/22 19:32:31;;;;;;;;;;;;;;;6.08;49.24;102433.44;106367;1253;70625;-86
2024/01/22 19:35:12;;;;;;;;;;;;;;;6.02;49.29;102431.02;106394;1258;73756;-86
2024/01/22 19:37:52;;;;;;;;;;;;;;;6.06;49.36;102427.13;107018;1253;61986;-87
2024/01/22 19:40:31;;;;;;;;;;;;;;;6.25;49.00;102430.09;107171;1253;61613;-88
2024/01/22 19:43:14;;;;;;;;;;;;;;;6.25;48.97;102419.73;106660;1259;77085;-87
2024/01/22 19:45:54;;;;;;;;;;;;;;;6.18;49.08;102423.20;106864;1253;70422;-89
2024/01/22 19:48:35;;;;;;;;;;;;;;;6.16;48.78;102418.19;106831;1253;74975;-86
2024/01/22 19:51:15;;;;;;;;;;;;;;;6.20;48.73;102415.88;107111;1252;61238;-89
2024/01/22 19:53:55;;;;;;;;;;;;;;;6.26;48.75;102418.02;106675;1253;61823;-87
2024/01/22 19:56:35;;;;;;;;;;;;;;;6.27;48.53;102418.83;106727;1255;76795;-89
2024/01/22 19:59:16;;;;;;;;;;;;;;;6.28;48.39;102416.28;106978;1253;70272;-86
2024/01/22 20:01:55;;;;;;;;;;;;;;;6.33;48.17;102413.14;106739;1253;74803;-88
2024/01/22 20:04:35;;;;;;;;;;;;;;;6.30;47.98;102411.49;106733;1255;61330;-88
2024/01/22 20:07:16;;;;;;;;;;;;;;;6.27;48.05;102405.54;106746;1257;61122;-86
2024/01/22 20:09:56;;;;;;;;;;;;;;;6.20;48.12;102403.39;107309;1259;76590;-86
2024/01/22 20:12:36;;;;;;;;;;;;;;;6.17;48.25;102399.83;106779;1253;69713;-86
2024/01/22 20:15:10;;;;;;;;;;;;;;;6.29;48.12;102392.27;106499;1253;74167;-86
2024/01/22 20:17:40;;;;;;;;;;;;;;;6.26;48.13;102386.88;106500;1253;61478;-86
2024/01/22 20:20:15;;;;;;;;;;;;;;;6.08;48.45;102384.67;106978;1257;60563;-87